createdAt,value
2023-02-11T00:00:03.555Z,102402.84
2023-02-11T00:02:33.154Z,102400.22
2023-02-11T00:05:02.764Z,102390.41
2023-02-11T00:07:35.851Z,102401.94
2023-02-11T00:10:06.403Z,102391.47
2023-02-11T00:12:34.864Z,102405.41
2023-02-11T00:15:03.498Z,102414.13
2023-02-11T00:17:33.251Z,102409.63
2023-02-11T00:20:01.482Z,102406.00
2023-02-11T00:22:29.826Z,102398.22
2023-02-11T00:24:59.223Z,102405.94
2023-02-11T00:27:27.569Z,102398.03
2023-02-11T00:29:56.159Z,102400.50
2023-02-11T00:32:24.230Z,102398.69
2023-02-11T00:34:53.320Z,102403.03
2023-02-11T00:37:21.554Z,102406.44
2023-02-11T00:39:50.170Z,102394.13
2023-02-11T00:42:19.862Z,102402.00
2023-02-11T00:44:48.064Z,102397.75
2023-02-11T00:47:18.234Z,102406.56
2023-02-11T00:49:46.905Z,102397.81
2023-02-11T00:52:14.991Z,102392.63
2023-02-11T00:54:43.879Z,102392.63
2023-02-11T00:57:12.233Z,102396.97
2023-02-11T00:59:44.173Z,102395.31
2023-02-11T01:02:12.546Z,102389.88
2023-02-11T01:04:43.213Z,102396.97
2023-02-11T01:07:11.336Z,102390.69
2023-02-11T01:09:40.002Z,102389.03
2023-02-11T01:12:08.158Z,102382.06
2023-02-11T01:14:36.281Z,102381.28
2023-02-11T01:17:07.497Z,102374.34
2023-02-11T01:19:35.604Z,102376.19
2023-02-11T01:22:03.769Z,102377.03
2023-02-11T01:24:32.177Z,102372.75
2023-02-11T01:27:01.041Z,102372.81
2023-02-11T01:29:29.636Z,102375.56
2023-02-11T01:31:57.970Z,102368.59
2023-02-11T01:34:28.566Z,102364.19
2023-02-11T01:36:59.869Z,102376.44
2023-02-11T01:39:33.834Z,102356.31
2023-02-11T01:42:02.577Z,102351.19
2023-02-11T01:44:34.650Z,102358.41
2023-02-11T01:47:04.924Z,102354.91
2023-02-11T01:49:37.387Z,102338.31
2023-02-11T01:52:10.809Z,102349.81
2023-02-11T01:55:00.450Z,102339.19
2023-02-11T01:57:33.405Z,102344.50
2023-02-11T02:00:09.108Z,102325.88
2023-02-11T02:02:54.324Z,102330.31
2023-02-11T02:05:33.728Z,102331.25
2023-02-11T02:08:11.073Z,102323.25
2023-02-11T02:10:43.321Z,102326.63
2023-02-11T02:13:11.994Z,102311.66
2023-02-11T02:15:43.036Z,102315.19
2023-02-11T02:18:28.970Z,102301.94
2023-02-11T02:21:31.807Z,102287.56
2023-02-11T02:24:34.239Z,102295.78
2023-02-11T02:27:42.290Z,102300.84
2023-02-11T02:30:33.420Z,102304.06
2023-02-11T02:33:28.284Z,102299.69
2023-02-11T02:36:10.646Z,102301.09
2023-02-11T02:38:41.719Z,102308.06
2023-02-11T02:41:13.036Z,102291.16
2023-02-11T02:43:43.689Z,102286.06
2023-02-11T02:46:14.630Z,102293.97
2023-02-11T02:48:45.034Z,102295.69
2023-02-11T02:51:28.019Z,102287.84
2023-02-11T02:54:05.309Z,102260.03
2023-02-11T02:56:44.663Z,102278.25
2023-02-11T02:59:26.206Z,102270.38
2023-02-11T03:02:06.329Z,102277.44
2023-02-11T03:04:41.023Z,102276.53
2023-02-11T03:07:18.121Z,102278.97
2023-02-11T03:09:50.842Z,102289.34
2023-02-11T03:12:19.919Z,102292.13
2023-02-11T03:14:50.347Z,102296.56
2023-02-11T03:17:20.470Z,102303.50
2023-02-11T03:19:52.861Z,102304.41
2023-02-11T03:22:24.021Z,102304.91
2023-02-11T03:24:52.809Z,102304.19
2023-02-11T03:27:28.559Z,102313.88
2023-02-11T03:30:02.191Z,102307.03
2023-02-11T03:32:35.090Z,102300.91
2023-02-11T03:35:11.533Z,102294.06
2023-02-11T03:37:43.634Z,102290.69
2023-02-11T03:41:37.647Z,102288.13
2023-02-11T03:44:07.786Z,102289.91
2023-02-11T03:46:40.372Z,102289.06
2023-02-11T03:49:12.240Z,102291.84
2023-02-11T03:51:42.996Z,102282.38
2023-02-11T03:54:15.830Z,102274.47
2023-02-11T03:56:50.896Z,102276.38
2023-02-11T03:59:19.147Z,102265.97
2023-02-11T04:01:47.294Z,102269.50
2023-02-11T04:04:15.554Z,102256.28
2023-02-11T04:06:43.928Z,102256.38
2023-02-11T04:09:12.315Z,102250.28
2023-02-11T04:11:40.463Z,102243.44
2023-02-11T04:14:10.052Z,102234.63
2023-02-11T04:16:38.330Z,102239.66
2023-02-11T04:19:06.512Z,102169.53
2023-02-11T04:21:36.843Z,102230.50
2023-02-11T04:24:07.446Z,102218.06
2023-02-11T04:26:35.674Z,102209.31
2023-02-11T04:29:03.747Z,102212.56
2023-02-11T04:31:33.378Z,102213.31
2023-02-11T04:34:01.755Z,102206.16
2023-02-11T04:36:29.790Z,102198.22
2023-02-11T04:38:58.083Z,102194.78
2023-02-11T04:41:28.352Z,102197.25
2023-02-11T04:43:56.521Z,102205.88
2023-02-11T04:46:27.974Z,102200.66
2023-02-11T04:48:59.797Z,102206.66
2023-02-11T04:51:27.880Z,102225.69
2023-02-11T04:53:56.017Z,102233.34
2023-02-11T04:56:24.494Z,102245.13
2023-02-11T04:58:52.716Z,102240.59
2023-02-11T05:01:21.128Z,102242.00
2023-02-11T05:03:49.675Z,102242.63
2023-02-11T05:06:19.463Z,102247.72
2023-02-11T05:08:47.528Z,102243.59
2023-02-11T05:11:17.816Z,102256.16
2023-02-11T05:13:46.372Z,102250.94
2023-02-11T05:16:17.527Z,102248.84
2023-02-11T05:18:46.619Z,102241.81
2023-02-11T05:21:17.155Z,102250.84
2023-02-11T05:23:49.350Z,102241.22
2023-02-11T05:26:18.134Z,102251.50
2023-02-11T05:28:46.330Z,102240.44
2023-02-11T05:31:15.055Z,102225.88
2023-02-11T05:33:43.833Z,102221.66
2023-02-11T05:36:14.591Z,102223.59
2023-02-11T05:38:43.514Z,102228.88
2023-02-11T05:41:13.517Z,102234.28
2023-02-11T05:43:41.556Z,102232.69
2023-02-11T05:46:09.754Z,102225.78
2023-02-11T05:48:37.981Z,102225.84
2023-02-11T05:51:06.331Z,102224.13
2023-02-11T05:53:34.462Z,102223.28
2023-02-11T05:56:03.041Z,102239.91
2023-02-11T05:58:33.970Z,102244.34
2023-02-11T06:01:05.515Z,102238.25
2023-02-11T06:03:33.677Z,102235.75
2023-02-11T06:06:01.633Z,102227.06
2023-02-11T06:08:29.977Z,102234.19
2023-02-11T06:11:00.158Z,102229.84
2023-02-11T06:13:31.956Z,102232.47
2023-02-11T06:16:01.270Z,102240.31
2023-02-11T06:18:33.677Z,102235.84
2023-02-11T06:21:01.724Z,102226.16
2023-02-11T06:23:31.900Z,102240.19
2023-02-11T06:26:04.159Z,102230.47
2023-02-11T06:28:33.859Z,102218.16
2023-02-11T06:31:06.798Z,102221.28
2023-02-11T06:33:35.390Z,102225.50
2023-02-11T06:36:13.029Z,102232.22
2023-02-11T06:38:41.133Z,102242.38
2023-02-11T06:41:11.016Z,102243.13
2023-02-11T06:43:43.703Z,102232.53
2023-02-11T06:46:11.925Z,102238.50
2023-02-11T06:48:39.968Z,102235.16
2023-02-11T06:51:10.184Z,102242.09
2023-02-11T06:53:42.430Z,102249.25
2023-02-11T06:56:13.069Z,102245.97
2023-02-11T06:58:41.362Z,102260.13
2023-02-11T07:01:13.188Z,102255.88
2023-02-11T07:03:46.341Z,102254.50
2023-02-11T07:06:18.800Z,102244.28
2023-02-11T07:08:49.743Z,102253.19
2023-02-11T07:11:20.681Z,102255.22
2023-02-11T07:13:48.930Z,102252.81
2023-02-11T07:16:19.676Z,102257.56
2023-02-11T07:18:49.223Z,102259.69
2023-02-11T07:21:20.452Z,102253.06
2023-02-11T07:23:51.115Z,102252.69
2023-02-11T07:26:23.101Z,102254.66
2023-02-11T07:28:52.212Z,102254.28
2023-02-11T07:31:24.165Z,102250.19
2023-02-11T07:33:56.462Z,102235.94
2023-02-11T07:36:25.030Z,102245.69
2023-02-11T07:38:55.567Z,102247.56
2023-02-11T07:41:25.177Z,102247.84
2023-02-11T07:43:53.722Z,102237.16
2023-02-11T07:46:25.507Z,102244.97
2023-02-11T07:48:53.668Z,102244.69
2023-02-11T07:51:23.595Z,102246.31
2023-02-11T07:53:55.426Z,102247.75
2023-02-11T07:56:25.146Z,102273.03
2023-02-11T07:58:53.845Z,102277.03
2023-02-11T08:01:28.264Z,102281.53
2023-02-11T08:03:57.040Z,102268.47
2023-02-11T08:06:29.506Z,102269.56
2023-02-11T08:08:58.071Z,102270.41
2023-02-11T08:11:28.230Z,102276.72
2023-02-11T08:13:59.437Z,102270.19
2023-02-11T08:16:32.961Z,102258.16
2023-02-11T08:19:03.468Z,102261.19
2023-02-11T08:21:31.555Z,102261.78
2023-02-11T08:24:00.242Z,102268.38
2023-02-11T08:26:31.751Z,102270.78
2023-02-11T08:29:04.829Z,102268.41
2023-02-11T08:31:39.553Z,102270.56
2023-02-11T08:34:11.613Z,102265.50
2023-02-11T08:36:42.105Z,102256.03
2023-02-11T08:42:36.671Z,102265.22
2023-02-11T08:45:05.226Z,102256.72
2023-02-11T08:47:33.767Z,102257.38
2023-02-11T08:50:01.845Z,102261.03
2023-02-11T08:52:30.212Z,102265.91
2023-02-11T08:54:58.843Z,102262.69
2023-02-11T08:57:29.578Z,102282.50
2023-02-11T08:59:59.537Z,102289.91
2023-02-11T09:02:30.434Z,102280.28
2023-02-11T09:04:58.553Z,102284.78
2023-02-11T09:07:26.904Z,102280.88
2023-02-11T09:09:55.057Z,102280.50
2023-02-11T09:12:23.346Z,102283.97
2023-02-11T09:14:53.786Z,102291.63
2023-02-11T09:17:23.430Z,102287.63
2023-02-11T09:19:51.501Z,102288.50
2023-02-11T09:22:19.862Z,102292.06
2023-02-11T09:24:48.233Z,102298.25
2023-02-11T09:27:16.356Z,102297.19
2023-02-11T09:29:44.725Z,102300.03
2023-02-11T09:32:15.707Z,102307.00
2023-02-11T09:34:45.911Z,102301.97
2023-02-11T09:37:16.236Z,102300.19
2023-02-11T09:39:46.214Z,102306.22
2023-02-11T09:42:44.926Z,102305.88
2023-02-11T09:45:18.862Z,102298.69
2023-02-11T09:47:53.690Z,102302.34
2023-02-11T09:50:29.274Z,102298.28
2023-02-11T09:53:02.973Z,102292.59
2023-02-11T09:55:38.239Z,102305.44
2023-02-11T09:58:12.847Z,102290.03
2023-02-11T10:00:46.341Z,102299.19
2023-02-11T10:03:36.145Z,102276.63
2023-02-11T10:06:30.159Z,102300.53
2023-02-11T10:09:03.445Z,102312.03
2023-02-11T10:11:43.017Z,102296.19
2023-02-11T10:14:26.936Z,102313.25
2023-02-11T10:17:05.745Z,102311.28
2023-02-11T10:19:47.261Z,102300.66
2023-02-11T10:22:23.731Z,102308.44
2023-02-11T10:24:55.104Z,102310.22
2023-02-11T10:27:32.050Z,102312.19
2023-02-11T10:30:03.769Z,102304.41
2023-02-11T10:32:40.697Z,102309.72
2023-02-11T10:35:17.936Z,102303.19
2023-02-11T10:37:47.768Z,102301.75
2023-02-11T10:40:18.081Z,102293.75
2023-02-11T10:42:51.217Z,102296.69
2023-02-11T10:45:26.361Z,102291.53
2023-02-11T10:47:55.467Z,102290.63
2023-02-11T10:50:27.043Z,102294.09
2023-02-11T10:53:13.859Z,102283.53
2023-02-11T10:55:52.324Z,102282.50
2023-02-11T10:58:26.577Z,102273.59
2023-02-11T11:00:56.738Z,102278.75
2023-02-11T11:03:26.511Z,102273.09
2023-02-11T11:05:58.568Z,102283.72
2023-02-11T11:08:43.337Z,102287.88
2023-02-11T11:11:13.700Z,102287.28
2023-02-11T11:13:43.782Z,102283.44
2023-02-11T11:16:24.484Z,102278.84
2023-02-11T11:18:54.990Z,102286.97
2023-02-11T11:21:27.441Z,102293.53
2023-02-11T11:24:01.596Z,102288.25
2023-02-11T11:26:40.828Z,102292.13
2023-02-11T11:29:13.014Z,102291.50
2023-02-11T11:31:56.881Z,102293.28
2023-02-11T11:34:31.148Z,102280.56
2023-02-11T11:37:14.180Z,102282.56
2023-02-11T11:39:53.882Z,102280.09
2023-02-11T11:42:30.406Z,102281.50
2023-02-11T11:45:00.436Z,102276.34
2023-02-11T11:47:36.047Z,102279.94
2023-02-11T11:50:21.417Z,102279.94
2023-02-11T11:52:55.804Z,102279.09
2023-02-11T11:55:28.267Z,102281.72
2023-02-11T11:57:57.099Z,102273.72
2023-02-11T12:00:45.090Z,102272.84
2023-02-11T12:03:54.837Z,102269.25
2023-02-11T12:06:34.881Z,102263.84
2023-02-11T12:09:16.108Z,102261.97
2023-02-11T12:12:03.863Z,102264.66
2023-02-11T12:14:41.056Z,102258.34
2023-02-11T12:17:22.459Z,102260.19
2023-02-11T12:20:18.058Z,102263.00
2023-02-11T12:23:00.058Z,102257.69
2023-02-11T12:25:30.872Z,102269.31
2023-02-11T12:28:14.109Z,102266.63
2023-02-11T12:31:19.093Z,102264.84
2023-02-11T12:34:02.009Z,102265.72
2023-02-11T12:36:46.799Z,102269.28
2023-02-11T12:39:30.195Z,102259.44
2023-02-11T12:43:14.897Z,102260.28
2023-02-11T12:46:15.815Z,102263.66
2023-02-11T12:49:13.004Z,102269.00
2023-02-11T12:52:07.937Z,102262.72
2023-02-11T12:54:44.061Z,102264.44
2023-02-11T12:57:19.541Z,102267.22
2023-02-11T12:59:56.613Z,102261.94
2023-02-11T13:02:40.729Z,102252.06
2023-02-11T13:05:23.439Z,102247.66
2023-02-11T13:07:55.201Z,102244.06
2023-02-11T13:10:29.461Z,102235.25
2023-02-11T13:13:17.917Z,102243.25
2023-02-11T13:15:51.298Z,102244.72
2023-02-11T13:18:33.414Z,102230.47
2023-02-11T13:21:19.943Z,102233.09
2023-02-11T13:23:57.883Z,102227.84
2023-02-11T13:26:35.176Z,102232.25
2023-02-11T13:29:19.754Z,102236.59
2023-02-11T13:31:55.327Z,102232.97
2023-02-11T13:34:56.183Z,102237.31
2023-02-11T13:37:27.897Z,102237.09
2023-02-11T13:40:01.047Z,102241.56
2023-02-11T13:43:37.740Z,102230.94
2023-02-11T13:46:11.882Z,102238.91
2023-02-11T13:48:47.361Z,102225.56
2023-02-11T13:51:17.732Z,102233.31
2023-02-11T13:53:51.502Z,102222.63
2023-02-11T13:56:30.233Z,102221.66
2023-02-11T13:59:02.311Z,102221.56
2023-02-11T14:02:16.348Z,102210.16
2023-02-11T14:05:39.577Z,102208.28
2023-02-11T14:08:40.801Z,102210.09
2023-02-11T14:11:48.522Z,102221.56
2023-02-11T14:14:26.229Z,102226.13
2023-02-11T14:17:31.134Z,102231.38
2023-02-11T14:20:00.420Z,102223.34
2023-02-11T14:22:32.775Z,102224.19
2023-02-11T14:25:02.285Z,102214.41
2023-02-11T14:27:42.085Z,102211.78
2023-02-11T14:30:44.390Z,102218.91
2023-02-11T14:33:27.407Z,102226.84
2023-02-11T14:36:09.071Z,102224.09
2023-02-11T14:38:49.551Z,102222.31
2023-02-11T14:41:24.228Z,102218.69
2023-02-11T14:43:55.247Z,102223.06
2023-02-11T14:46:27.726Z,102224.81
2023-02-11T14:48:59.937Z,102230.00
2023-02-11T14:51:31.311Z,102236.16
2023-02-11T14:54:04.586Z,102238.66
2023-02-11T14:56:34.496Z,102235.13
2023-02-11T14:59:03.721Z,102236.91
2023-02-11T15:01:35.351Z,102240.41
2023-02-11T15:04:05.607Z,102238.59
2023-02-11T15:06:37.165Z,102234.19
2023-02-11T15:09:18.788Z,102238.66
2023-02-11T15:11:52.381Z,102240.44
2023-02-11T15:14:29.253Z,102245.81
2023-02-11T15:17:04.505Z,102250.25
2023-02-11T15:19:36.029Z,102253.72
2023-02-11T15:22:06.772Z,102257.22
2023-02-11T15:24:36.433Z,102256.38
2023-02-11T15:27:12.794Z,102251.00
2023-02-11T15:29:44.315Z,102249.31
2023-02-11T15:32:18.345Z,102255.38
2023-02-11T15:34:48.279Z,102243.81
2023-02-11T15:37:21.018Z,102253.63
2023-02-11T15:39:49.905Z,102256.28
2023-02-11T15:42:20.340Z,102262.44
2023-02-11T15:44:56.297Z,102272.09
2023-02-11T15:47:30.790Z,102274.69
2023-02-11T15:49:59.134Z,102271.16
2023-02-11T15:52:29.362Z,102265.69
2023-02-11T15:55:02.844Z,102275.50
2023-02-11T15:57:31.505Z,102271.03
2023-02-11T16:00:05.650Z,102269.25
2023-02-11T16:02:45.235Z,102273.66
2023-02-11T16:05:27.657Z,102270.09
2023-02-11T16:07:57.190Z,102268.25
2023-02-11T16:10:28.143Z,102281.53
2023-02-11T16:13:03.289Z,102277.91
2023-02-11T16:15:47.903Z,102279.66
2023-02-11T16:18:37.868Z,102276.09
2023-02-11T16:21:13.302Z,102273.44
2023-02-11T16:23:43.116Z,102274.19
2023-02-11T16:26:21.713Z,102287.50
2023-02-11T16:28:50.524Z,102288.56
2023-02-11T16:31:19.723Z,102294.66
2023-02-11T16:33:51.925Z,102296.34
2023-02-11T16:36:20.164Z,102294.66
2023-02-11T16:38:48.200Z,102289.25
2023-02-11T16:41:16.600Z,102288.34
2023-02-11T16:43:44.638Z,102296.22
2023-02-11T16:46:16.557Z,102290.88
2023-02-11T16:48:47.105Z,102298.81
2023-02-11T16:51:19.202Z,102302.31
2023-02-11T16:53:47.351Z,102295.16
2023-02-11T16:56:17.344Z,102295.97
2023-02-11T16:58:46.322Z,102292.47
2023-02-11T17:01:15.422Z,102296.84
2023-02-11T17:03:43.840Z,102298.59
2023-02-11T17:06:13.707Z,102305.63
2023-02-11T17:08:43.125Z,102313.53
2023-02-11T17:11:11.522Z,102317.88
2023-02-11T17:13:41.573Z,102301.97
2023-02-11T17:16:17.015Z,102305.47
2023-02-11T17:18:47.787Z,102309.88
2023-02-11T17:21:18.329Z,102310.66
2023-02-11T17:23:47.763Z,102302.63
2023-02-11T17:26:15.896Z,102307.94
2023-02-11T17:28:44.019Z,102283.78
2023-02-11T17:31:12.583Z,102298.06
2023-02-11T17:33:41.219Z,102311.28
2023-02-11T17:36:11.232Z,102320.22
2023-02-11T17:38:39.454Z,102309.56
2023-02-11T17:41:11.313Z,102317.50
2023-02-11T17:43:39.956Z,102315.66
2023-02-11T17:46:11.335Z,102322.72
2023-02-11T17:48:40.055Z,102305.69
2023-02-11T17:51:23.071Z,102317.31
2023-02-11T17:53:51.213Z,102324.38
2023-02-11T17:56:21.273Z,102322.63
2023-02-11T17:58:49.425Z,102314.59
2023-02-11T18:01:17.901Z,102319.88
2023-02-11T18:03:46.237Z,102327.00
2023-02-11T18:06:15.100Z,102320.81
2023-02-11T18:08:45.588Z,102319.84
2023-02-11T18:11:17.109Z,102331.44
2023-02-11T18:13:54.231Z,102328.72
2023-02-11T18:16:22.863Z,102335.72
2023-02-11T18:18:51.822Z,102322.34
2023-02-11T18:21:21.784Z,102337.47
2023-02-11T18:23:50.871Z,102340.13
2023-02-11T18:26:21.066Z,102339.19
2023-02-11T18:28:53.482Z,102325.81
2023-02-11T18:31:22.728Z,102325.84
2023-02-11T18:33:53.229Z,102329.38
2023-02-11T18:36:23.193Z,102345.28
2023-02-11T18:38:53.824Z,102338.16
2023-02-11T18:44:37.565Z,102341.72
2023-02-11T18:47:05.822Z,102349.66
2023-02-11T18:49:36.907Z,102345.25
2023-02-11T18:52:06.096Z,102354.09
2023-02-11T18:54:34.609Z,102355.81
2023-02-11T18:57:05.034Z,102346.13
2023-02-11T18:59:37.966Z,102354.94
2023-02-11T19:02:06.027Z,102352.31
2023-02-11T19:04:37.528Z,102347.00
2023-02-11T19:07:10.821Z,102339.84
2023-02-11T19:09:41.085Z,102330.97
2023-02-11T19:12:09.867Z,102324.72
2023-02-11T19:14:39.970Z,102343.25
2023-02-11T19:17:10.822Z,102338.84
2023-02-11T19:19:40.860Z,102337.13
2023-02-11T19:22:10.666Z,102331.81
2023-02-11T19:24:40.018Z,102337.19
2023-02-11T19:27:10.967Z,102333.63
2023-02-11T19:29:40.865Z,102328.31
2023-02-11T19:32:09.069Z,102317.53
2023-02-11T19:34:41.647Z,102338.94
2023-02-11T19:37:13.564Z,102345.13
2023-02-11T19:39:42.374Z,102347.75
2023-02-11T19:42:11.089Z,102358.34
2023-02-11T19:44:40.564Z,102361.00
2023-02-11T19:47:12.648Z,102353.00
2023-02-11T19:49:41.037Z,102352.09
2023-02-11T19:52:12.238Z,102352.09
2023-02-11T19:54:40.535Z,102353.84
2023-02-11T19:57:08.608Z,102359.13
2023-02-11T19:59:36.760Z,102350.22
2023-02-11T20:02:10.252Z,102350.22
2023-02-11T20:04:38.476Z,102341.28
2023-02-11T20:07:07.141Z,102341.97
2023-02-11T20:09:38.030Z,102352.66
2023-02-11T20:12:06.496Z,102361.50
2023-02-11T20:14:37.001Z,102360.66
2023-02-11T20:17:08.643Z,102368.59
2023-02-11T20:19:37.245Z,102371.25
2023-02-11T20:22:05.399Z,102377.47
2023-02-11T20:24:33.911Z,102373.97
2023-02-11T20:27:02.102Z,102375.78
2023-02-11T20:29:32.578Z,102370.56
2023-02-11T20:32:00.818Z,102369.72
2023-02-11T20:34:32.592Z,102365.31
2023-02-11T20:37:04.066Z,102364.41
2023-02-11T20:39:32.990Z,102369.72
2023-02-11T20:42:01.106Z,102376.75
2023-02-11T20:44:32.430Z,102390.00
2023-02-11T20:47:00.573Z,102381.22
2023-02-11T20:49:29.216Z,102375.91
2023-02-11T20:51:59.267Z,102376.75
2023-02-11T20:54:27.938Z,102376.75
2023-02-11T20:56:57.009Z,102375.78
2023-02-11T20:59:25.950Z,102373.13
2023-02-11T21:01:57.045Z,102374.88
2023-02-11T21:04:27.937Z,102374.81
2023-02-11T21:06:59.176Z,102373.91
2023-02-11T21:09:29.639Z,102371.19
2023-02-11T21:11:58.106Z,102369.44
2023-02-11T21:14:27.143Z,102370.31
2023-02-11T21:16:55.701Z,102376.41
2023-02-11T21:19:23.810Z,102374.66
2023-02-11T21:21:52.532Z,102364.00
2023-02-11T21:24:22.110Z,102372.84
2023-02-11T21:26:52.628Z,102369.28
2023-02-11T21:29:20.801Z,102365.72
2023-02-11T21:31:49.703Z,102368.28
2023-02-11T21:34:20.767Z,102369.13
2023-02-11T21:36:51.223Z,102369.94
2023-02-11T21:39:23.187Z,102372.53
2023-02-11T21:41:51.658Z,102377.84
2023-02-11T21:44:20.213Z,102373.44
2023-02-11T21:46:48.501Z,102370.81
2023-02-11T21:49:16.670Z,102368.16
2023-02-11T21:51:45.026Z,102367.31
2023-02-11T21:54:13.461Z,102373.44
2023-02-11T21:56:43.036Z,102378.72
2023-02-11T21:59:13.721Z,102388.34
2023-02-11T22:01:42.308Z,102399.00
2023-02-11T22:04:11.093Z,102401.63
2023-02-11T22:06:40.000Z,102393.72
2023-02-11T22:09:09.777Z,102400.75
2023-02-11T22:11:38.710Z,102405.19
2023-02-11T22:14:08.179Z,102405.13
2023-02-11T22:16:36.388Z,102410.41
2023-02-11T22:19:07.275Z,102410.41
2023-02-11T22:21:35.582Z,102430.75
2023-02-11T22:24:03.776Z,102416.59
2023-02-11T22:26:32.602Z,102413.06
2023-02-11T22:29:00.759Z,102415.78
2023-02-11T22:31:32.850Z,102410.47
2023-02-11T22:34:02.028Z,102420.09
2023-02-11T22:36:32.239Z,102422.72
2023-02-11T22:39:02.773Z,102403.13
2023-02-11T22:41:31.281Z,102403.22
2023-02-11T22:43:59.972Z,102402.25
2023-02-11T22:46:31.941Z,102401.25
2023-02-11T22:49:00.130Z,102401.19
2023-02-11T22:51:30.973Z,102401.91
2023-02-11T22:54:01.410Z,102395.56
2023-02-11T22:56:31.225Z,102403.56
2023-02-11T22:59:04.279Z,102395.56
2023-02-11T23:01:34.218Z,102399.84
2023-02-11T23:04:06.863Z,102392.66
2023-02-11T23:06:35.514Z,102396.84
2023-02-11T23:09:04.456Z,102394.91
2023-02-11T23:11:32.928Z,102398.28
2023-02-11T23:14:02.526Z,102402.59
2023-02-11T23:16:32.391Z,102408.69
2023-02-11T23:19:04.064Z,102405.03
2023-02-11T23:21:34.035Z,102377.19
2023-02-11T23:24:04.795Z,102413.66
2023-02-11T23:26:38.977Z,102411.00
2023-02-11T23:29:07.344Z,102411.81
2023-02-11T23:31:39.805Z,102411.81
2023-02-11T23:34:12.713Z,102400.00
2023-02-11T23:36:40.800Z,102431.22
2023-02-11T23:39:14.951Z,102430.34
2023-02-11T23:41:43.172Z,102419.69
2023-02-11T23:45:36.819Z,102432.34
2023-02-11T23:48:05.184Z,102433.28
2023-02-11T23:50:34.518Z,102433.38
2023-02-11T23:53:02.722Z,102429.97
2023-02-11T23:55:30.841Z,102433.53
2023-02-11T23:57:59.618Z,102437.09
